createdAt,value
2022-09-28T00:02:13.351Z,99552.53
2022-09-28T00:04:40.239Z,99536.38
2022-09-28T00:07:06.885Z,99553.34
2022-09-28T00:09:33.799Z,99533.22
2022-09-28T00:12:00.603Z,99544.84
2022-09-28T00:14:27.726Z,99545.22
2022-09-28T00:16:54.595Z,99539.13
2022-09-28T00:19:21.310Z,99525.09
2022-09-28T00:21:48.098Z,99531.34
2022-09-28T00:24:27.535Z,99507.28
2022-09-28T00:26:57.241Z,99568.22
2022-09-28T00:29:27.117Z,99541.13
2022-09-28T00:32:03.386Z,99539.19
2022-09-28T00:34:32.978Z,99560.63
2022-09-28T00:37:01.290Z,99546.69
2022-09-28T00:39:28.583Z,99566.16
2022-09-28T00:41:55.279Z,99503.94
2022-09-28T00:44:40.691Z,99562.25
2022-09-28T00:47:09.729Z,99554.38
2022-09-28T00:49:43.482Z,99573.50
2022-09-28T00:52:16.009Z,99570.53
2022-09-28T00:54:46.040Z,99546.69
2022-09-28T00:57:13.976Z,99553.91
2022-09-28T00:59:41.556Z,99545.44
2022-09-28T01:02:10.560Z,99574.75
2022-09-28T01:04:38.718Z,99577.81
2022-09-28T01:07:07.824Z,99559.56
2022-09-28T01:09:40.186Z,99572.38
2022-09-28T01:12:07.547Z,99575.56
2022-09-28T01:14:34.567Z,99569.31
2022-09-28T01:17:16.333Z,99529.47
2022-09-28T01:20:19.438Z,99565.19
2022-09-28T01:23:20.247Z,99565.03
2022-09-28T01:26:24.243Z,99566.09
2022-09-28T01:28:55.668Z,99564.78
2022-09-28T01:31:30.612Z,99553.97
2022-09-28T01:34:13.992Z,99542.31
2022-09-28T01:36:50.981Z,99533.09
2022-09-28T01:39:34.976Z,99545.06
2022-09-28T01:42:09.478Z,99532.09
2022-09-28T01:44:41.779Z,99552.28
2022-09-28T01:47:12.499Z,99539.47
2022-09-28T01:49:47.261Z,99506.50
2022-09-28T01:52:32.043Z,99551.22
2022-09-28T01:55:06.315Z,99544.63
2022-09-28T01:57:39.834Z,99548.91
2022-09-28T02:00:10.874Z,99545.53
2022-09-28T02:02:43.281Z,99551.44
2022-09-28T02:05:18.614Z,99550.44
2022-09-28T02:07:54.986Z,99556.72
2022-09-28T02:10:27.289Z,99527.09
2022-09-28T02:13:06.074Z,99556.59
2022-09-28T02:15:40.378Z,99560.34
2022-09-28T02:18:07.514Z,99555.66
2022-09-28T02:20:38.799Z,99534.00
2022-09-28T02:23:05.422Z,99547.88
2022-09-28T02:25:49.856Z,99550.81
2022-09-28T02:28:16.619Z,99560.19
2022-09-28T02:30:44.567Z,99537.66
2022-09-28T02:33:25.183Z,99560.19
2022-09-28T02:35:51.984Z,99541.47
2022-09-28T02:38:18.711Z,99545.47
2022-09-28T02:40:57.773Z,99565.63
2022-09-28T02:43:32.263Z,99571.16
2022-09-28T02:46:09.045Z,99560.84
2022-09-28T02:49:21.057Z,99567.69
2022-09-28T02:52:28.319Z,99568.19
2022-09-28T02:54:57.970Z,99568.44
2022-09-28T02:57:41.796Z,99555.47
2022-09-28T03:00:22.934Z,99566.34
2022-09-28T03:03:08.016Z,99567.34
2022-09-28T03:06:00.532Z,99568.13
2022-09-28T03:08:41.141Z,99554.59
2022-09-28T03:11:31.165Z,99546.84
2022-09-28T03:13:58.727Z,99542.97
2022-09-28T03:16:27.660Z,99540.13
2022-09-28T03:18:54.363Z,99545.84
2022-09-28T03:21:21.059Z,99511.19
2022-09-28T03:23:48.047Z,99516.16
2022-09-28T03:26:16.889Z,99520.19
2022-09-28T03:28:43.789Z,99533.75
2022-09-28T03:31:10.535Z,99546.13
2022-09-28T03:33:37.344Z,99524.09
2022-09-28T03:36:04.155Z,99518.63
2022-09-28T03:38:30.790Z,99546.44
2022-09-28T03:40:59.933Z,99561.50
2022-09-28T03:43:28.135Z,99560.78
2022-09-28T03:45:56.665Z,99549.38
2022-09-28T03:48:27.717Z,99519.41
2022-09-28T03:51:00.323Z,99559.75
2022-09-28T03:53:27.078Z,99546.97
2022-09-28T03:55:53.805Z,99549.91
2022-09-28T03:58:21.468Z,99572.88
2022-09-28T04:00:49.164Z,99541.28
2022-09-28T04:03:16.135Z,99556.41
2022-09-28T04:05:53.171Z,99521.78
2022-09-28T04:08:20.085Z,99534.75
2022-09-28T04:10:47.737Z,99520.25
2022-09-28T04:13:14.517Z,99553.72
2022-09-28T04:15:42.240Z,99530.94
2022-09-28T04:18:13.656Z,99550.06
2022-09-28T04:20:41.558Z,99536.94
2022-09-28T04:23:08.314Z,99534.13
2022-09-28T04:25:35.000Z,99494.53
2022-09-28T04:28:20.160Z,99540.50
2022-09-28T04:30:47.689Z,99552.03
2022-09-28T04:33:14.389Z,99499.94
2022-09-28T04:35:41.039Z,99537.25
2022-09-28T04:38:07.815Z,99538.53
2022-09-28T04:40:34.495Z,99542.81
2022-09-28T04:43:01.269Z,99516.44
2022-09-28T04:45:28.629Z,99528.28
2022-09-28T04:47:55.369Z,99511.69
2022-09-28T04:50:22.170Z,99535.97
2022-09-28T04:52:48.861Z,99516.63
2022-09-28T04:55:15.602Z,99522.28
2022-09-28T04:57:42.222Z,99510.63
2022-09-28T05:00:10.646Z,99504.13
2022-09-28T05:02:37.399Z,99501.19
2022-09-28T05:05:04.410Z,99508.13
2022-09-28T05:07:31.359Z,99529.22
2022-09-28T05:09:58.046Z,99513.31
2022-09-28T05:12:24.748Z,99483.22
2022-09-28T05:14:51.444Z,99488.72
2022-09-28T05:17:18.062Z,99481.88
2022-09-28T05:19:44.714Z,99486.72
2022-09-28T05:22:14.925Z,99477.44
2022-09-28T05:24:41.908Z,99511.50
2022-09-28T05:27:08.798Z,99493.84
2022-09-28T05:29:35.448Z,99454.91
2022-09-28T05:32:02.205Z,99446.47
2022-09-28T05:34:29.422Z,99486.75
2022-09-28T05:36:56.209Z,99496.34
2022-09-28T05:39:22.944Z,99477.72
2022-09-28T05:41:49.686Z,99506.38
2022-09-28T05:44:16.501Z,99502.06
2022-09-28T05:46:43.319Z,99472.28
2022-09-28T05:49:09.998Z,99471.81
2022-09-28T05:51:36.670Z,99430.81
2022-09-28T05:54:06.169Z,99498.44
2022-09-28T05:56:33.434Z,99479.81
2022-09-28T06:15:09.348Z,99486.19
2022-09-28T07:49:34.974Z,99487.22
2022-09-28T08:16:26.689Z,99492.94
2022-09-28T08:18:55.627Z,99514.13
2022-09-28T08:24:27.031Z,99474.53
2022-09-28T08:26:55.772Z,99543.13
2022-09-28T08:29:23.889Z,99498.75
2022-09-28T08:31:52.805Z,99511.59
2022-09-28T08:37:01.637Z,99518.22
2022-09-28T08:39:30.646Z,99512.16
2022-09-28T08:42:35.184Z,99521.34
2022-09-28T08:45:15.533Z,99544.50
2022-09-28T08:48:38.492Z,99549.84
2022-09-28T08:51:24.095Z,99489.22
2022-09-28T08:54:31.619Z,99543.50
2022-09-28T08:57:03.801Z,99547.25
2022-09-28T08:59:45.040Z,99493.88
2022-09-28T09:02:38.688Z,99517.38
2022-09-28T09:05:06.903Z,99558.16
2022-09-28T09:08:03.240Z,99555.00
2022-09-28T09:11:08.767Z,99549.13
2022-09-28T09:13:42.753Z,99546.06
2022-09-28T09:16:38.487Z,99546.59
2022-09-28T09:19:17.511Z,99546.28
2022-09-28T09:21:51.027Z,99539.03
2022-09-28T09:24:51.034Z,99541.88
2022-09-28T09:27:21.427Z,99546.84
2022-09-28T09:30:06.700Z,99524.28
2022-09-28T09:32:33.525Z,99555.44
2022-09-28T09:35:00.700Z,99539.41
2022-09-28T09:37:55.221Z,99545.66
2022-09-28T09:40:31.793Z,99534.31
2022-09-28T09:43:28.070Z,99541.38
2022-09-28T09:46:29.126Z,99550.38
2022-09-28T09:48:59.552Z,99547.56
2022-09-28T09:51:59.484Z,99560.75
2022-09-28T09:54:34.702Z,99559.28
2022-09-28T09:57:17.691Z,99512.06
2022-09-28T09:59:45.951Z,99497.22
2022-09-28T10:02:22.825Z,99516.56
2022-09-28T10:04:53.126Z,99508.41
2022-09-28T10:07:35.088Z,99529.31
2022-09-28T10:10:03.241Z,99543.47
2022-09-28T10:12:31.225Z,99511.09
2022-09-28T10:14:58.040Z,99520.34
2022-09-28T10:17:27.510Z,99492.91
2022-09-28T10:19:56.975Z,99529.16
2022-09-28T10:55:43.341Z,99552.78
2022-09-28T10:58:28.221Z,99570.44
2022-09-28T11:01:05.622Z,99545.38
2022-09-28T11:03:32.738Z,99568.56
2022-09-28T11:06:02.126Z,99590.22
2022-09-28T11:08:44.528Z,99549.63
2022-09-28T11:11:17.885Z,99529.69
2022-09-28T11:24:41.497Z,99529.91
2022-09-28T11:30:06.641Z,99547.41
2022-09-28T11:32:46.358Z,99525.31
2022-09-28T11:36:04.792Z,99575.03
2022-09-28T11:38:44.678Z,99525.88
2022-09-28T11:41:39.177Z,99587.00
2022-09-28T11:44:21.065Z,99589.81
2022-09-28T11:47:13.841Z,99583.63
2022-09-28T11:49:49.664Z,99551.25
2022-09-28T11:52:27.702Z,99552.25
2022-09-28T11:55:03.247Z,99592.69
2022-09-28T11:57:36.509Z,99590.31
2022-09-28T12:00:10.070Z,99591.78
2022-09-28T12:02:42.789Z,99558.34
2022-09-28T12:05:25.141Z,99588.88
2022-09-28T12:08:00.117Z,99570.50
2022-09-28T12:10:45.437Z,99595.25
2022-09-28T12:13:17.021Z,99597.13
2022-09-28T12:16:27.677Z,99573.06
2022-09-28T12:19:08.387Z,99583.41
2022-09-28T12:21:41.130Z,99574.88
2022-09-28T12:24:18.532Z,99561.03
2022-09-28T12:26:57.139Z,99584.28
2022-09-28T12:29:32.721Z,99540.16
2022-09-28T12:32:24.206Z,99597.88
2022-09-28T12:34:50.968Z,99585.94
2022-09-28T12:37:38.008Z,99542.47
2022-09-28T12:40:36.651Z,99587.78
2022-09-28T12:43:03.566Z,99584.38
2022-09-28T12:46:10.402Z,99564.97
2022-09-28T12:49:24.140Z,99581.69
2022-09-28T12:51:51.520Z,99542.50
2022-09-28T12:54:34.817Z,99591.53
2022-09-28T12:57:19.525Z,99541.13
2022-09-28T13:00:01.246Z,99597.47
2022-09-28T13:02:40.455Z,99595.31
2022-09-28T13:05:44.420Z,99572.81
2022-09-28T13:08:21.003Z,99600.28
2022-09-28T13:10:50.523Z,99602.13
2022-09-28T13:13:26.460Z,99598.53
2022-09-28T13:16:17.641Z,99605.69
2022-09-28T13:18:55.660Z,99605.47
2022-09-28T13:21:32.640Z,99559.81
2022-09-28T13:24:20.676Z,99591.69
2022-09-28T13:26:48.891Z,99565.41
2022-09-28T13:29:20.869Z,99579.91
2022-09-28T13:31:57.538Z,99541.53
2022-09-28T13:34:35.423Z,99584.34
2022-09-28T13:37:16.898Z,99590.41
2022-09-28T13:39:52.332Z,99584.72
2022-09-28T13:42:42.209Z,99595.06
2022-09-28T13:45:21.084Z,99600.59
2022-09-28T13:47:58.639Z,99585.66
2022-09-28T13:51:04.731Z,99612.97
2022-09-28T13:54:16.851Z,99604.31
2022-09-28T13:57:25.412Z,99599.78
2022-09-28T14:00:16.197Z,99558.88
2022-09-28T14:02:51.955Z,99583.47
2022-09-28T14:05:21.757Z,99593.34
2022-09-28T14:08:10.056Z,99606.94
2022-09-28T14:10:52.148Z,99602.84
2022-09-28T14:13:40.770Z,99601.34
2022-09-28T14:16:31.163Z,99561.78
2022-09-28T14:19:02.980Z,99603.56
2022-09-28T14:22:17.424Z,99608.09
2022-09-28T14:25:09.048Z,99615.59
2022-09-28T14:27:47.994Z,99614.31
2022-09-28T14:30:14.551Z,99611.53
2022-09-28T14:33:03.085Z,99601.69
2022-09-28T14:36:04.782Z,99621.59
2022-09-28T14:39:10.338Z,99618.84
2022-09-28T14:41:40.175Z,99622.94
2022-09-28T14:44:12.628Z,99584.22
2022-09-28T14:46:41.375Z,99632.63
2022-09-28T14:49:18.275Z,99598.97
2022-09-28T14:52:04.865Z,99596.09
2022-09-28T14:54:51.253Z,99609.38
2022-09-28T14:57:24.825Z,99588.53
2022-09-28T14:59:52.598Z,99570.75
2022-09-28T15:02:32.575Z,99631.25
2022-09-28T15:05:14.831Z,99590.53
2022-09-28T15:07:52.042Z,99636.09
2022-09-28T15:10:32.763Z,99643.97
2022-09-28T15:13:02.180Z,99620.53
2022-09-28T15:15:35.100Z,99638.63
2022-09-28T15:18:05.631Z,99640.59
2022-09-28T15:20:38.670Z,99610.94
2022-09-28T15:23:05.799Z,99606.72
2022-09-28T15:25:34.023Z,99566.06
2022-09-28T15:28:13.529Z,99604.53
2022-09-28T15:30:42.749Z,99628.72
2022-09-28T15:33:52.438Z,99619.47
2022-09-28T15:36:49.235Z,99654.63
2022-09-28T15:39:22.781Z,99653.44
2022-09-28T15:41:51.706Z,99673.34
2022-09-28T15:44:39.995Z,99636.41
2022-09-28T15:47:40.779Z,99601.59
2022-09-28T15:50:29.270Z,99663.78
2022-09-28T15:53:06.137Z,99647.16
2022-09-28T15:55:43.306Z,99661.78
2022-09-28T15:58:16.264Z,99669.25
2022-09-28T16:00:45.498Z,99641.34
2022-09-28T16:03:12.656Z,99674.50
2022-09-28T16:05:49.397Z,99677.84
2022-09-28T16:08:43.197Z,99663.19
2022-09-28T16:11:17.355Z,99641.69
2022-09-28T16:14:02.710Z,99678.28
2022-09-28T16:16:36.255Z,99640.59
2022-09-28T16:19:04.208Z,99651.41
2022-09-28T16:21:40.336Z,99685.13
2022-09-28T16:24:09.804Z,99640.25
2022-09-28T16:26:39.346Z,99692.47
2022-09-28T16:29:26.221Z,99681.88
2022-09-28T16:31:54.280Z,99659.75
2022-09-28T16:34:25.371Z,99689.09
2022-09-28T16:36:53.518Z,99699.59
2022-09-28T16:39:21.059Z,99657.44
2022-09-28T16:42:00.548Z,99716.94
2022-09-28T16:44:33.179Z,99677.69
2022-09-28T16:47:01.353Z,99670.50
2022-09-28T16:49:30.079Z,99667.53
2022-09-28T16:51:57.244Z,99702.19
2022-09-28T16:54:43.858Z,99714.84
2022-09-28T16:57:14.118Z,99641.91
2022-09-28T16:59:44.315Z,99658.41
2022-09-28T17:02:46.377Z,99705.06
2022-09-28T17:05:09.939Z,99669.22
2022-09-28T17:07:39.423Z,99663.41
2022-09-28T17:10:19.558Z,99691.72
2022-09-28T17:13:13.336Z,99716.03
2022-09-28T17:15:53.445Z,99723.75
2022-09-28T17:18:23.166Z,99720.59
2022-09-28T17:21:07.710Z,99704.47
2022-09-28T17:23:37.118Z,99641.88
2022-09-28T17:26:04.776Z,99656.78
2022-09-28T17:28:37.488Z,99692.22
2022-09-28T17:31:13.953Z,99674.66
2022-09-28T17:33:40.683Z,99687.63
2022-09-28T17:36:13.401Z,99724.09
2022-09-28T17:38:44.602Z,99755.69
2022-09-28T17:41:19.988Z,99738.72
2022-09-28T17:43:47.623Z,99717.47
2022-09-28T17:46:33.658Z,99733.44
2022-09-28T17:49:02.259Z,99742.81
2022-09-28T17:51:32.441Z,99716.84
2022-09-28T17:54:01.129Z,99729.25
2022-09-28T17:56:32.170Z,99721.16
2022-09-28T17:59:04.610Z,99738.44
2022-09-28T18:01:34.696Z,99779.19
2022-09-28T18:04:06.712Z,99752.69
2022-09-28T18:06:56.180Z,99738.09
2022-09-28T18:09:25.538Z,99709.44
2022-09-28T18:12:00.326Z,99769.88
2022-09-28T18:14:27.201Z,99764.56
2022-09-28T18:16:53.953Z,99719.91
2022-09-28T18:19:20.677Z,99741.31
2022-09-28T18:21:50.380Z,99769.59
2022-09-28T18:24:17.172Z,99727.03
2022-09-28T18:26:43.941Z,99735.94
2022-09-28T18:29:13.016Z,99734.88
2022-09-28T18:31:39.661Z,99758.19
2022-09-28T18:34:08.748Z,99750.38
2022-09-28T18:36:35.945Z,99731.38
2022-09-28T18:39:06.312Z,99721.38
2022-09-28T18:41:33.171Z,99779.53
2022-09-28T18:44:03.228Z,99735.22
2022-09-28T18:46:36.182Z,99800.91
2022-09-28T18:49:06.728Z,99728.84
2022-09-28T18:51:33.430Z,99730.06
2022-09-28T18:54:07.795Z,99820.00
2022-09-28T18:56:37.472Z,99807.03
2022-09-28T18:59:11.776Z,99810.94
2022-09-28T19:01:39.462Z,99820.28
2022-09-28T19:04:10.565Z,99776.16
2022-09-28T19:06:43.832Z,99772.38
2022-09-28T19:09:10.815Z,99768.53
2022-09-28T19:11:37.787Z,99838.56
2022-09-28T19:14:04.603Z,99796.16
2022-09-28T19:16:35.804Z,99799.13
2022-09-28T19:19:03.392Z,99809.41
2022-09-28T19:21:30.295Z,99830.53
2022-09-28T19:24:00.128Z,99792.25
2022-09-28T19:26:28.133Z,99863.38
2022-09-28T19:29:04.576Z,99856.81
2022-09-28T19:31:33.957Z,99831.56
2022-09-28T19:34:03.710Z,99823.97
2022-09-28T19:36:30.604Z,99845.44
2022-09-28T19:39:01.502Z,99867.19
2022-09-28T19:41:49.492Z,99835.13
2022-09-28T19:44:30.205Z,99824.41
2022-09-28T19:47:06.748Z,99871.91
2022-09-28T19:49:38.541Z,99868.78
2022-09-28T19:52:17.616Z,99828.34
2022-09-28T19:54:57.527Z,99870.16
2022-09-28T19:57:30.617Z,99884.75
2022-09-28T20:00:02.901Z,99843.75
2022-09-28T20:02:36.633Z,99850.97
2022-09-28T20:05:03.578Z,99886.06
2022-09-28T20:07:33.740Z,99818.94
2022-09-28T20:10:00.413Z,99846.09
2022-09-28T20:12:28.117Z,99832.13
2022-09-28T20:14:54.805Z,99883.59
2022-09-28T20:17:24.447Z,99855.94
2022-09-28T20:19:54.171Z,99849.28
2022-09-28T20:22:24.286Z,99879.06
2022-09-28T20:24:55.124Z,99877.28
2022-09-28T20:27:26.224Z,99861.50
2022-09-28T20:30:03.601Z,99859.06
2022-09-28T20:32:35.558Z,99858.19
2022-09-28T20:35:02.180Z,99888.41
2022-09-28T20:37:31.032Z,99882.56
2022-09-28T20:39:58.401Z,99888.38
2022-09-28T20:42:25.450Z,99861.09
2022-09-28T20:44:52.552Z,99873.03
2022-09-28T20:47:19.542Z,99871.06
2022-09-28T20:49:46.500Z,99895.34
2022-09-28T20:52:13.167Z,99888.41
2022-09-28T20:54:39.810Z,99907.75
2022-09-28T20:57:17.487Z,99912.66
2022-09-28T20:59:45.127Z,99907.31
2022-09-28T21:02:18.130Z,99928.53
2022-09-28T21:04:44.973Z,99909.22
2022-09-28T21:07:11.735Z,99915.53
2022-09-28T21:09:38.491Z,99910.81
2022-09-28T21:12:05.258Z,99902.13
2022-09-28T21:14:32.158Z,99925.13
2022-09-28T21:16:58.792Z,99920.41
2022-09-28T21:19:25.651Z,99926.91
2022-09-28T21:21:52.474Z,99928.72
2022-09-28T21:24:19.216Z,99939.53
2022-09-28T21:26:45.919Z,99944.88
2022-09-28T21:29:14.619Z,99942.19
2022-09-28T21:31:45.850Z,99943.06
2022-09-28T21:34:21.125Z,99947.09
2022-09-28T21:36:51.188Z,99921.22
2022-09-28T21:39:19.220Z,99927.69
2022-09-28T21:41:46.021Z,99951.50
2022-09-28T21:44:12.935Z,99938.56
2022-09-28T21:46:39.951Z,99950.38
2022-09-28T21:49:07.950Z,99936.22
2022-09-28T21:51:35.416Z,99951.78
2022-09-28T21:54:02.033Z,99943.13
2022-09-28T21:56:28.790Z,99946.56
2022-09-28T21:58:55.450Z,99934.84
2022-09-28T22:01:25.702Z,99966.16
2022-09-28T22:03:55.306Z,99953.94
2022-09-28T22:06:24.063Z,99942.88
2022-09-28T22:08:53.595Z,99966.53
2022-09-28T22:11:23.743Z,99962.97
2022-09-28T22:13:57.147Z,99980.69
2022-09-28T22:16:27.193Z,99973.72
2022-09-28T22:18:54.225Z,99971.09
2022-09-28T22:21:26.854Z,99988.13
2022-09-28T22:23:53.931Z,99953.59
2022-09-28T22:26:23.994Z,99970.31
2022-09-28T22:28:52.212Z,99992.47
2022-09-28T22:31:20.603Z,99999.06
2022-09-28T22:33:47.493Z,99993.81
2022-09-28T22:36:16.673Z,99998.56
2022-09-28T22:38:44.343Z,99987.75
2022-09-28T22:41:12.098Z,99995.63
2022-09-28T22:43:39.105Z,99988.53
2022-09-28T22:46:11.166Z,99999.91
2022-09-28T22:48:38.690Z,100009.94
2022-09-28T22:51:07.196Z,99992.69
2022-09-28T22:53:35.315Z,100001.94
2022-09-28T22:56:05.675Z,100015.56
2022-09-28T22:58:33.349Z,99999.81
2022-09-28T23:01:07.113Z,99998.38
2022-09-28T23:03:33.904Z,100024.88
2022-09-28T23:06:00.830Z,100017.38
2022-09-28T23:08:28.148Z,99985.47
2022-09-28T23:10:54.960Z,100014.06
2022-09-28T23:13:21.633Z,99986.09
2022-09-28T23:16:10.657Z,100026.03
2022-09-28T23:18:38.735Z,100030.97
2022-09-28T23:21:07.364Z,99978.78
2022-09-28T23:23:34.602Z,100030.97
2022-09-28T23:26:09.708Z,99996.50
2022-09-28T23:28:36.396Z,100045.84
2022-09-28T23:31:35.874Z,100006.50
2022-09-28T23:34:05.073Z,100046.13
2022-09-28T23:36:32.863Z,100032.13
2022-09-28T23:39:00.049Z,100041.25
2022-09-28T23:41:28.601Z,100032.13
2022-09-28T23:43:55.550Z,100048.00
2022-09-28T23:46:22.381Z,100028.66
2022-09-28T23:48:52.409Z,100046.50
2022-09-28T23:51:19.232Z,100048.09
2022-09-28T23:53:46.291Z,100021.31
2022-09-28T23:56:14.598Z,100038.16
2022-09-28T23:58:41.420Z,100053.44
